createdAt,value
2023-04-20T00:07:59.749Z,-0.6
2023-04-20T00:27:12.255Z,-0.5
2023-04-20T00:46:24.898Z,0.6
2023-04-20T01:05:34.530Z,0.9
2023-04-20T01:24:45.579Z,1.3
2023-04-20T01:43:55.640Z,1
2023-04-20T02:03:08.277Z,1
2023-04-20T02:22:17.021Z,1
2023-04-20T02:41:26.163Z,1
2023-04-20T03:00:36.793Z,1.2
2023-04-20T03:19:46.415Z,1.5
2023-04-20T03:38:57.245Z,1.7
2023-04-20T03:58:06.932Z,2
2023-04-20T04:17:15.333Z,2.5
2023-04-20T04:36:25.996Z,2.9
2023-04-20T04:55:36.186Z,2.9
2023-04-20T05:14:47.211Z,3.4
2023-04-20T05:33:58.278Z,3.5
2023-04-20T05:53:09.324Z,3.6
2023-04-20T06:12:20.034Z,4.5
2023-04-20T06:31:32.456Z,4.8
2023-04-20T06:50:46.833Z,4.5
2023-04-20T07:09:58.029Z,4.9
2023-04-20T07:29:09.932Z,4.4
2023-04-20T07:48:22.947Z,4.8
2023-04-20T08:07:37.454Z,4.4
2023-04-20T08:26:47.351Z,4.4
2023-04-20T08:46:00.441Z,4
2023-04-20T09:05:15.602Z,4.1
2023-04-20T09:24:24.934Z,5.3
2023-04-20T09:43:40.052Z,4.7
2023-04-20T10:02:54.819Z,3.7
2023-04-20T10:22:04.162Z,4
2023-04-20T10:41:12.889Z,3.6
2023-04-20T11:00:22.758Z,3.5
2023-04-20T11:19:37.927Z,4.1
2023-04-20T11:38:48.428Z,3.3
2023-04-20T11:58:03.713Z,3.6
2023-04-20T12:17:16.549Z,3.7
2023-04-20T12:36:30.076Z,4
2023-04-20T12:55:38.461Z,3.7
2023-04-20T13:14:49.996Z,3
2023-04-20T13:34:04.613Z,3.3
2023-04-20T13:53:14.903Z,3.4
2023-04-20T14:12:27.329Z,3.1
2023-04-20T14:31:42.101Z,3.7
2023-04-20T14:50:51.675Z,2.9
2023-04-20T15:10:05.670Z,3.2
2023-04-20T15:29:18.340Z,2.8
2023-04-20T15:48:29.626Z,2.3
2023-04-20T16:07:39.872Z,2.9
2023-04-20T16:26:46.240Z,4
2023-04-20T16:45:56.231Z,6
2023-04-20T17:05:05.625Z,6.5
2023-04-20T17:24:16.663Z,7.1
2023-04-20T17:43:27.151Z,6.4
2023-04-20T18:02:42.284Z,6.9
2023-04-20T18:21:52.410Z,6.8
2023-04-20T18:41:05.849Z,6.9
2023-04-20T19:00:16.876Z,6.9
2023-04-20T19:19:28.393Z,6.6
2023-04-20T19:38:40.356Z,6.3
2023-04-20T19:57:50.823Z,7.1
2023-04-20T20:17:06.987Z,7.8
2023-04-20T20:36:15.248Z,7.9
2023-04-20T20:55:26.703Z,8.2
2023-04-20T21:14:37.577Z,7.8
2023-04-20T21:33:49.752Z,9
2023-04-20T21:52:59.877Z,8.7
2023-04-20T22:12:11.297Z,8.8
2023-04-20T22:31:22.331Z,8.7
2023-04-20T22:50:34.210Z,8.8
2023-04-20T23:09:46.056Z,8.7
2023-04-20T23:28:57.011Z,8.8
2023-04-20T23:48:09.675Z,8.6
